Jasper, AL (35504)

3:27 AM CST on November 24, 2014 (GMT -0600)
BranchWater Estates | Change Station
CLOSE
Current Station
Personal Weather Station
Location: JASPER, AL
Elevation: 480 ft
Nearby Weather Stations

Elev 480 ft 33.86 °N, 87.24 °W | Updated 25 seconds ago

Partly Cloudy
Partly Cloudy
63.1 °F
Feels Like 63.1 °F
N
1.0
Wind Variable Wind from East
Gusts 6.0 mph

Today
High -- | Low -- °F
--% Chance of Precip.
Yesterday
High -- | Low -- °F
Precip. -- in
6:29 AM 4:41 PM
Waxing Crescent, 4% visible
Pressure 29.66 in
Visibility 10.0 miles
Clouds Few 1800 ft
Dew Point 59 °F
Humidity 87%
Rainfall 0.00 in
Snow Depth Not available.
UV 0 out of 12
Pollen .30 out of 12
Air Quality Not available.
Flu Activity Not available.
METAR KJFX 240915Z AUTO 20004KT 10SM FEW018 18/16 A2966 RMK A02 P-128

More Conditions Fewer Conditions

Pressure 29.66 in
Visibility 10.0 miles
Clouds Few 1800 ft
Dew Point 59 °F
Humidity 87%
Rainfall 0.00 in
Snow Depth Not available.
UV 0 out of 12
Pollen .30 out of 12
Air Quality Not available.
Flu Activity Not available.
METAR KJFX 240915Z AUTO 20004KT 10SM FEW018 18/16 A2966 RMK A02 P-128

More Conditions Fewer Conditions

10-Day Weather Forecast

Almanac

Astronomy

Nov. 24, 2014 Rise Set
Actual Time
Civil Twilight
Nautical Twilight
Astronomical Twilight
Moon
Length of Visible Light
Length of Day
Tomorrow will be .
, % of the Moon is Illuminated

Today's Extremes

State Highs State Lows

Community

WunderPhotos

Upload Photos

1,773,294 photos uploaded!

WunderBlogs® & News

Nearby

Air Quality

  Air Quality AQ Index Pollutant
Not available.

Snow Depth

Station Depth Elevation

Earthquake Activity

City Distance Mag. Time & Date
Minimum magnitude displayed is 2.5.

Coastal Water Temperatures

Place Temperature

Nearby Weather Stations